Data for 08/17/2013

Time Sea-Level Adjusted Pressure Absolute Pressure Temperature Relative Humidity Dew Point   
(mb) (inHg) (mb) (inHg) (C) (F) (%) (C) (F)
00:05 1020 30.12 849 25.07 18.8 65.8 29 0.5 32.8
00:10 1020 30.12 849 25.07 18.6 65.4 28 -0.1 31.8
00:15 1020 30.12 849 25.07 18.6 65.5 28 0 32.1
00:20 1020 30.12 849 25.07 18.8 65.8 26 -0.8 30.6
00:25 1020 30.12 849 25.07 19.1 66.5 26 -0.6 31
00:30 1020 30.12 849 25.07 19 66.2 26 -0.5 31
00:35 1020 30.12 849 25.07 19.2 66.6 25 -1.4 29.6
00:40 1020 30.12 849 25.07 19.6 67.4 24 -1.4 29.6
00:45 1020 30.12 849 25.07 19.8 67.7 25 -0.8 30.6
00:50 1020 30.12 849 25.07 19.7 67.4 29 1.3 34.3
00:55 1020 30.12 849 25.07 19.6 67.3 29 1.1 34
01:00 1020 30.12 849 25.07 19.2 66.6 27 -0.2 31.6
01:05 1020 30.12 849 25.07 18.7 65.6 28 0.1 32.3
01:10 1020 30.12 849 25.07 18.1 64.6 29 -0 31.9
01:15 1020 30.12 849 25.07 17.8 64 29 -0.2 31.6
01:20 1020 30.12 849 25.07 17.6 63.8 29 -0.3 31.4
01:25 1020 30.12 849 25.07 17.7 63.9 32 0.8 33.4
01:30 1020 30.12 849 25.07 17.7 63.9 32 0.8 33.5
01:35 1020 30.12 849 25.07 16.7 62 35 1.3 34.3
01:40 1020 30.12 849 25.07 16.3 61.4 32 -0.1 31.8
01:45 1020 30.12 849 25.07 16.9 62.5 31 -0.1 31.8
01:50 1020 30.12 849 25.07 17.4 63.3 29 -0.9 30.4
01:55 1020 30.12 849 25.07 18.1 64.6 27 -1 30.2
02:00 1020 30.12 849 25.07 18.4 65.1 28 -0.2 31.7
02:05 1020 30.12 849 25.07 18.2 64.7 28 -0.3 31.4
02:10 1020 30.12 849 25.07 17.8 64.1 29 -0.4 31.3
02:15 1020 30.12 849 25.07 17.8 64 29 -0.5 31.1
02:20 1020 30.12 849 25.07 17.8 64.1 28 -1 30.2
02:25 1020 30.12 849 25.07 18.4 65.1 26 -1.1 30
02:30 1020 30.12 849 25.07 18.5 65.2 28 -0.4 31.2
02:35 1020 30.12 849 25.07 17.9 64.1 29 -0.3 31.4
02:40 1020 30.12 849 25.07 17.6 63.6 31 0.6 33
02:45 1020 30.12 849 25.07 18 64.5 28 -0.7 30.8
02:50 1020 30.12 849 25.07 18.1 64.5 27 -1 30.2
02:55 1020 30.12 849 25.07 18.2 64.8 27 -1 30.1
03:00 1020 30.12 849 25.07 18.1 64.6 28 -0.6 30.9
03:05 1020 30.12 849 25.07 17.9 64.1 28 -0.7 30.7
03:10 1020 30.12 850 25.1 17.7 63.8 29 -0.5 31.1
03:15 1020 30.12 850 25.1 17.3 63.1 30 -0.3 31.5
03:20 1020 30.12 850 25.1 17.1 62.8 29 -0.8 30.5
03:25 1020 30.12 850 25.1 17.5 63.6 28 -1.1 29.9
03:30 1020 30.12 850 25.1 17.7 63.9 28 -0.9 30.4
03:35 1020 30.12 850 25.1 17.8 64 27 -1.2 29.9
03:40 1020 30.12 850 25.1 18 64.3 27 -1.1 29.9
03:45 1021 30.15 850 25.1 18 64.3 27 -1.2 29.8
03:50 1021 30.15 850 25.1 17.8 64 32 0.8 33.5
03:55 1021 30.15 850 25.1 17.4 63.3 29 -0.7 30.8
04:00 1021 30.15 850 25.1 17.3 63.2 29 -0.7 30.7
04:05 1021 30.15 850 25.1 17.3 63.1 29 -0.9 30.4
04:10 1021 30.15 850 25.1 17.4 63.3 29 -0.9 30.3
04:15 1021 30.15 850 25.1 17.4 63.3 28 -1.2 29.9
04:20 1021 30.15 850 25.1 17.5 63.6 28 -1.1 30
04:25 1021 30.15 850 25.1 17.4 63.3 28 -1.1 30.1
04:30 1021 30.15 850 25.1 17.4 63.4 28 -1 30.3
04:35 1021 30.15 850 25.1 17.6 63.6 32 0.8 33.4
04:40 1021 30.15 850 25.1 17.8 64 28 -0.6 30.9
04:45 1021 30.15 850 25.1 17.4 63.4 29 -0.6 30.8
04:50 1021 30.15 850 25.1 17.2 62.9 30 -0.7 30.8
04:55 1021 30.15 850 25.1 17 62.7 31 0 32.1
05:00 1021 30.15 850 25.1 16.7 62.1 30 -0.7 30.7
05:05 1021 30.15 850 25.1 16.9 62.4 30 -0.8 30.5
05:10 1021 30.15 850 25.1 16.9 62.4 29 -1.2 29.9
05:15 1021 30.15 850 25.1 17.4 63.4 28 -0.9 30.3
05:20 1021 30.15 850 25.1 17.6 63.6 28 -1.2 29.9
05:25 1021 30.15 850 25.1 17.7 63.8 28 -0.9 30.4
05:30 1021 30.15 850 25.1 17.7 63.8 28 -0.8 30.5
05:35 1021 30.15 850 25.1 17.6 63.6 28 -0.8 30.5
05:40 1021 30.15 850 25.1 17.5 63.6 28 -1.1 30
05:45 1021 30.15 850 25.1 17.8 64 28 -0.9 30.4
05:50 1021 30.15 850 25.1 17.5 63.5 28 -0.9 30.4
05:55 1021 30.15 850 25.1 17.2 63 29 -0.9 30.4
06:00 1021 30.15 850 25.1 17.1 62.7 29 -0.8 30.6
06:05 1021 30.15 850 25.1 17 62.6 30 -0.5 31.2
06:10 1021 30.15 850 25.1 16.7 62.1 30 -0.6 30.8
06:15 1021 30.15 850 25.1 16.7 62.1 31 -0.5 31.1
06:20 1021 30.15 850 25.1 16.7 62.1 32 0.2 32.3
06:25 1021 30.15 850 25.1 16.8 62.2 31 -0.3 31.5
06:30 1021 30.15 850 25.1 16.9 62.5 30 -0.6 30.9
06:35 1021 30.15 850 25.1 17.2 62.9 30 -0.6 30.9
06:40 1021 30.15 851 25.13 17.6 63.7 32 0.7 33.2
06:45 1021 30.15 851 25.13 17.4 63.3 32 0.8 33.4
06:50 1021 30.15 851 25.13 17.5 63.5 30 -0 32
06:55 1021 30.15 851 25.13 17.7 63.8 30 0.2 32.3
07:00 1022 30.18 851 25.13 18 64.4 31 0.7 33.2
07:05 1022 30.18 851 25.13 18.3 65 32 1.3 34.4
07:10 1022 30.18 851 25.13 18.4 65.1 36 3.1 37.6
07:15 1022 30.18 851 25.13 17.3 63.1 35 1.7 35
07:20 1022 30.18 851 25.13 17.3 63.2 31 0.1 32.3
07:25 1022 30.18 851 25.13 18 64.5 31 0.7 33.2
07:30 1022 30.18 851 25.13 18.6 65.5 31 1.2 34.2
07:35 1022 30.18 851 25.13 19 66.2 30 1.2 34.2
07:40 1022 30.18 851 25.13 19.5 67.1 31 2.3 36.1
07:45 1022 30.18 851 25.13 19.6 67.2 30 1.8 35.2
07:50 1022 30.18 851 25.13 20 68.1 28 1.3 34.3
07:55 1022 30.18 851 25.13 20.5 69 28 1.7 35.1
08:00 1022 30.18 851 25.13 20.9 69.7 26 0.8 33.4
08:05 1022 30.18 851 25.13 21 69.8 27 1.6 34.9
08:10 1022 30.18 851 25.13 21.4 70.6 27 1.9 35.4
08:15 1022 30.18 851 25.13 22.1 71.8 27 2.3 36.1
08:20 1022 30.18 851 25.13 22.4 72.3 27 2.7 36.9
08:25 1022 30.18 852 25.16 22.5 72.5 27 2.9 37.2
08:30 1022 30.18 852 25.16 22.6 72.6 27 2.6 36.7
08:35 1022 30.18 852 25.16 22.1 71.8 25 1.1 33.9
08:40 1022 30.18 852 25.16 22.4 72.3 25 1.6 34.8
08:45 1022 30.18 852 25.16 22 71.6 24 0.9 33.6
08:50 1022 30.18 852 25.16 22.4 72.4 23 0.6 33.1
08:55 1022 30.18 852 25.16 22.6 72.7 24 1 33.8
09:00 1022 30.18 852 25.16 23.4 74.2 23 1.2 34.1
09:05 1022 30.18 851 25.13 23 73.4 23 1.1 33.9
09:10 1022 30.18 851 25.13 23.4 74.1 23 1.2 34.2
09:15 1022 30.18 851 25.13 23.4 74 23 1.2 34.1
09:20 1022 30.18 851 25.13 24 75.2 22 1.4 34.6
09:25 1022 30.18 851 25.13 24.1 75.3 22 1.4 34.5
09:30 1022 30.18 851 25.13 24.4 76 22 1.4 34.5
09:35 1022 30.18 851 25.13 24.5 76.2 22 1.6 34.9
09:40 1022 30.18 851 25.13 24.9 76.8 20 0.9 33.6
09:45 1022 30.18 851 25.13 24.7 76.4 23 2.4 36.3
09:50 1022 30.18 851 25.13 25.1 77.1 22 2.1 35.7
09:55 1022 30.18 851 25.13 25.8 78.4 21 2 35.6
10:00 1022 30.18 851 25.13 26.3 79.3 21 2.6 36.7
10:05 1022 30.18 851 25.13 26.4 79.5 22 3 37.3
10:10 1022 30.18 851 25.13 26.5 79.7 20 2.1 35.8
10:15 1022 30.18 851 25.13 26.2 79.1 21 2.6 36.7
10:20 1022 30.18 851 25.13 26.7 80.1 21 2.7 36.8
10:25 1022 30.18 851 25.13 26.5 79.6 22 3.5 38.3
10:30 1022 30.18 851 25.13 26.2 79.2 21 2.5 36.6
10:35 1022 30.18 851 25.13 27 80.5 21 3.3 37.9
10:40 1022 30.18 851 25.13 27.6 81.6 21 3.5 38.3
10:45 1022 30.18 851 25.13 27.1 80.7 21 3.1 37.6
10:50 1022 30.18 851 25.13 27.6 81.7 21 3.7 38.6
10:55 1022 30.18 851 25.13 27.4 81.4 21 3.6 38.5
11:00 1022 30.18 851 25.13 27.7 81.8 20 3.3 38
11:05 1022 30.18 851 25.13 27.6 81.7 21 3.6 38.5
11:10 1022 30.18 851 25.13 27.8 82 21 3.7 38.7
11:15 1021 30.15 851 25.13 27.7 81.8 20 3.3 38
11:20 1021 30.15 851 25.13 27.9 82.1 21 3.5 38.4
11:25 1021 30.15 850 25.1 27.8 82 21 3.6 38.5
11:30 1021 30.15 850 25.1 28 82.4 20 3.1 37.7
11:35 1021 30.15 850 25.1 28.2 82.8 20 3.4 38
11:40 1021 30.15 850 25.1 28.3 82.9 19 2.6 36.7
11:45 1021 30.15 850 25.1 27.7 81.8 21 3.3 38
11:50 1021 30.15 850 25.1 27.6 81.6 19 2.5 36.5
11:55 1021 30.15 850 25.1 27.5 81.6 19 2.2 35.9
12:00 1021 30.15 850 25.1 28.4 83 18 2.3 36.1
12:05 1021 30.15 850 25.1 28.3 82.9 20 3.8 38.9
12:10 1021 30.15 850 25.1 28.3 82.9 19 2.7 36.8
12:15 1021 30.15 850 25.1 28.8 83.8 20 3.9 39.1
12:20 1021 30.15 850 25.1 28.8 83.9 19 3.1 37.6
12:25 1021 30.15 850 25.1 29.4 85 19 3.4 38.2
12:30 1021 30.15 850 25.1 29.4 84.8 18 3 37.4
12:35 1020 30.12 850 25.1 29.4 84.9 17 2.5 36.5
12:40 1020 30.12 850 25.1 29.8 85.6 17 2.6 36.6
12:45 1020 30.12 850 25.1 29.7 85.5 17 2.7 36.9
12:50 1020 30.12 850 25.1 29 84.1 18 2.9 37.2
12:55 1020 30.12 849 25.07 29.3 84.7 18 3 37.4
13:00 1020 30.12 849 25.07 29.6 85.3 17 2.6 36.6
13:05 1020 30.12 849 25.07 29.9 85.7 17 2.4 36.4
13:10 1020 30.12 849 25.07 29.7 85.5 19 3.9 38.9
13:15 1020 30.12 849 25.07 28.9 83.9 19 3 37.5
13:20 1020 30.12 849 25.07 29.3 84.8 19 3.5 38.4
13:25 1020 30.12 849 25.07 29.6 85.3 19 3.8 38.9
13:30 1020 30.12 849 25.07 30 86.1 18 3.4 38.1
13:35 1020 30.12 849 25.07 29.2 84.5 19 3.6 38.5
13:40 1020 30.12 849 25.07 29.4 84.9 18 2.9 37.2
13:45 1020 30.12 849 25.07 29.9 85.8 18 3.5 38.3
13:50 1020 30.12 849 25.07 30 86.1 17 3.1 37.5
13:55 1020 30.12 849 25.07 29.8 85.7 18 3.3 37.9
14:00 1020 30.12 849 25.07 29.7 85.4 18 2.9 37.3
14:05 1020 30.12 849 25.07 29.7 85.5 18 3.2 37.8
14:10 1020 30.12 849 25.07 29.6 85.2 18 3.3 37.9
14:15 1020 30.12 849 25.07 29.3 84.7 18 2.8 37
14:20 1020 30.12 849 25.07 29.5 85.2 17 2 35.7
14:25 1020 30.12 849 25.07 29.7 85.5 17 2.3 36.1
14:30 1019 30.09 849 25.07 30 86.1 15 1.2 34.1
14:35 1019 30.09 849 25.07 29.8 85.7 15 0.9 33.6
14:40 1019 30.09 849 25.07 29.6 85.3 15 0.6 33.1
14:45 1019 30.09 848 25.04 29.9 85.9 14 0.1 32.2
14:50 1019 30.09 848 25.04 31 87.8 14 0.8 33.4
14:55 1019 30.09 848 25.04 30.7 87.2 15 1.2 34.2
15:00 1019 30.09 848 25.04 30.7 87.2 14 0.4 32.8
15:05 1019 30.09 848 25.04 30.9 87.6 14 0.5 32.9
15:10 1019 30.09 848 25.04 30.9 87.6 14 0.3 32.6
15:15 1019 30.09 848 25.04 30.7 87.3 14 0.4 32.7
15:20 1019 30.09 848 25.04 30.6 87.1 13 -0.4 31.3
15:25 1019 30.09 848 25.04 31 87.8 13 -0.6 30.8
15:30 1019 30.09 848 25.04 31 87.9 13 -0.8 30.6
15:35 1019 30.09 848 25.04 31 87.8 12 -1.1 30
15:40 1019 30.09 848 25.04 30.7 87.3 13 -0.9 30.4
15:45 1019 30.09 848 25.04 31.3 88.3 13 -0.3 31.5
15:50 1019 30.09 848 25.04 31.4 88.6 12 -0.6 30.9
15:55 1018 30.06 848 25.04 31.2 88.2 13 -0.3 31.4
16:00 1018 30.06 848 25.04 31.5 88.6 12 -0.6 30.9
16:05 1018 30.06 848 25.04 31 87.8 13 -0.3 31.4
16:10 1018 30.06 848 25.04 30.8 87.5 13 -0.6 30.9
16:15 1018 30.06 848 25.04 30.9 87.6 13 -0.3 31.5
16:20 1018 30.06 848 25.04 31.5 88.6 12 -0.7 30.7
16:25 1018 30.06 848 25.04 31.3 88.4 12 -0.8 30.6
16:30 1018 30.06 848 25.04 31 87.8 13 -0.5 31.1
16:35 1018 30.06 848 25.04 30.7 87.2 13 -0.6 30.9
16:40 1018 30.06 847 25.01 30.9 87.5 13 -0.6 30.9
16:45 1018 30.06 847 25.01 31.1 87.9 13 -0.4 31.3
16:50 1018 30.06 847 25.01 31 87.9 12 -1.2 29.8
16:55 1018 30.06 847 25.01 30.8 87.5 12 -1.3 29.7
17:00 1018 30.06 847 25.01 30.5 86.8 13 -0.7 30.7
17:05 1018 30.06 847 25.01 30.5 86.9 12 -1.7 29
17:10 1018 30.06 847 25.01 30.1 86.2 12 -1.6 29.2
17:15 1018 30.06 847 25.01 30.2 86.4 12 -2.2 28
17:20 1018 30.06 847 25.01 30.2 86.4 12 -1.7 28.9
17:25 1018 30.06 847 25.01 30.3 86.5 12 -1.8 28.7
17:30 1018 30.06 847 25.01 30.5 87 12 -2 28.4
17:35 1018 30.06 847 25.01 30.4 86.7 12 -1.8 28.8
17:40 1018 30.06 847 25.01 30.4 86.6 12 -2.2 28.1
17:45 1018 30.06 847 25.01 30.4 86.7 12 -2.4 27.7
17:50 1018 30.06 847 25.01 29.8 85.7 12 -1.8 28.7
17:55 1018 30.06 847 25.01 29.5 85 13 -1.5 29.3
18:00 1018 30.06 847 25.01 29.4 84.9 13 -1.9 28.7
18:05 1018 30.06 847 25.01 29.3 84.8 13 -1.9 28.6
18:10 1018 30.06 847 25.01 29.3 84.7 13 -2.1 28.2
18:15 1018 30.06 847 25.01 29.4 84.8 13 -1.1 30
18:20 1018 30.06 847 25.01 29.5 85.1 13 -1.7 29
18:25 1018 30.06 847 25.01 29.5 85.1 14 -0 31.9
18:30 1018 30.06 847 25.01 29.6 85.2 15 0.2 32.3
18:35 1018 30.06 847 25.01 29.5 85.1 14 -0.2 31.6
18:40 1018 30.06 847 25.01 29.4 85 17 2.1 35.8
18:45 1018 30.06 847 25.01 29 84.2 15 0.1 32.1
18:50 1018 30.06 847 25.01 28.7 83.6 17 1.2 34.2
18:55 1018 30.06 847 25.01 28.4 83.2 16 0.9 33.5
19:00 1018 30.06 847 25.01 28.3 82.9 15 -0.6 30.9
19:05 1018 30.06 847 25.01 28.3 82.9 20 3.2 37.7
19:10 1018 30.06 847 25.01 28.1 82.6 19 2.6 36.7
19:15 1018 30.06 847 25.01 27.9 82.2 20 3 37.3
19:20 1018 30.06 847 25.01 27.7 81.9 22 4.1 39.3
19:25 1018 30.06 847 25.01 27.4 81.3 22 4.4 39.9
19:30 1018 30.06 847 25.01 27.1 80.8 24 5.2 41.3
19:35 1018 30.06 847 25.01 26.8 80.2 25 5.4 41.7
19:40 1018 30.06 847 25.01 26.5 79.7 26 5.7 42.2
19:45 1018 30.06 847 25.01 25.7 78.3 24 4.2 39.5
19:50 1018 30.06 847 25.01 25.1 77.1 26 4.3 39.8
19:55 1018 30.06 847 25.01 24.5 76.1 26 4 39.2
20:00 1018 30.06 847 25.01 24.1 75.3 28 4.8 40.7
20:05 1018 30.06 847 25.01 23.3 73.9 36 7.5 45.5
20:10 1018 30.06 847 25.01 22.3 72.1 27 2.5 36.6
20:15 1018 30.06 847 25.01 23 73.4 29 4.3 39.8
20:20 1018 30.06 847 25.01 22.7 72.8 25 2 35.5
20:25 1018 30.06 847 25.01 23 73.4 24 1.4 34.6
20:30 1018 30.06 847 25.01 23.1 73.6 25 2.2 35.9
20:35 1018 30.06 847 25.01 22.8 73 25 1.7 35.1
20:40 1018 30.06 847 25.01 22.5 72.4 24 1.2 34.1
20:45 1018 30.06 848 25.04 22.4 72.3 24 1.1 34
20:50 1018 30.06 848 25.04 22.3 72.2 26 2.2 36
20:55 1018 30.06 848 25.04 22.3 72.2 26 1.9 35.4
21:00 1018 30.06 847 25.01 22.2 72 26 2.2 35.9
21:05 1018 30.06 848 25.04 22.3 72.2 24 1.2 34.2
21:10 1018 30.06 848 25.04 22.7 72.9 24 1.6 34.8
21:15 1018 30.06 848 25.04 22.6 72.6 26 2.5 36.6
21:20 1018 30.06 848 25.04 22.4 72.3 26 1.9 35.4
21:25 1018 30.06 848 25.04 22.4 72.4 24 1 33.8
21:30 1018 30.06 848 25.04 22.7 72.8 23 0.5 32.9
21:35 1018 30.06 848 25.04 22.8 73.1 22 0.4 32.7
21:40 1018 30.06 847 25.01 23 73.4 21 -0 32
21:45 1018 30.06 847 25.01 23.1 73.6 21 -0.1 31.8
21:50 1018 30.06 847 25.01 23.3 73.9 21 0.2 32.3
21:55 1018 30.06 848 25.04 23.2 73.8 22 0.4 32.7
22:00 1018 30.06 848 25.04 23 73.3 23 0.9 33.5
22:05 1018 30.06 848 25.04 22.8 73.1 23 0.9 33.6
22:10 1018 30.06 847 25.01 23.1 73.6 23 1 33.9
22:15 1018 30.06 847 25.01 23.4 74.2 23 1.1 34.1
22:20 1018 30.06 847 25.01 24 75.1 22 1.3 34.4
22:25 1018 30.06 847 25.01 24 75.2 22 1.2 34.1
22:30 1018 30.06 847 25.01 24.1 75.4 22 1.3 34.4
22:35 1018 30.06 848 25.04 24.3 75.7 22 1.4 34.6
22:40 1018 30.06 848 25.04 24.2 75.6 22 1.6 34.9
22:45 1018 30.06 848 25.04 24 75.2 23 1.8 35.3
22:50 1019 30.09 848 25.04 23.5 74.3 24 2.1 35.7
22:55 1019 30.09 848 25.04 23 73.4 25 2.1 35.9
23:00 1018 30.06 848 25.04 22.6 72.6 26 2.3 36.1
23:05 1018 30.06 848 25.04 22.3 72.1 28 3.3 38
23:10 1019 30.09 848 25.04 21.4 70.4 31 3.6 38.4
23:15 1019 30.09 848 25.04 20.7 69.2 32 3.5 38.2
23:20 1019 30.09 848 25.04 20.3 68.6 32 3.4 38
23:25 1019 30.09 848 25.04 19.9 67.8 36 4.4 39.9
23:30 1019 30.09 848 25.04 18.9 65.9 38 4.2 39.6
23:35 1019 30.09 848 25.04 18.9 65.9 34 2.9 37.2
23:40 1019 30.09 848 25.04 19.2 66.5 35 3.4 38.2
23:45 1019 30.09 848 25.04 19.2 66.6 34 3.1 37.6
23:50 1019 30.09 848 25.04 19.3 66.7 32 2.2 35.9
23:55 1019 30.09 848 25.04 19.6 67.3 31 2.1 35.9
24:00 1019 30.09 848 25.04 19.7 67.4 30 1.9 35.4